createdAt,value
2023-05-07T00:01:12.908Z,100320.38
2023-05-07T00:04:00.627Z,100316.56
2023-05-07T00:06:48.155Z,100325.38
2023-05-07T00:09:35.713Z,100324.31
2023-05-07T00:12:23.389Z,100322.44
2023-05-07T00:15:11.555Z,100327.66
2023-05-07T00:18:00.760Z,100327.84
2023-05-07T00:20:48.472Z,100330.78
2023-05-07T00:23:36.021Z,100325.34
2023-05-07T00:26:23.945Z,100329.31
2023-05-07T00:29:11.419Z,100329.13
2023-05-07T00:31:58.923Z,100329.13
2023-05-07T00:34:46.393Z,100334.72
2023-05-07T00:37:33.914Z,100327.41
2023-05-07T00:40:21.384Z,100335.78
2023-05-07T00:43:09.081Z,100339.97
2023-05-07T00:45:57.215Z,100337.88
2023-05-07T00:48:44.978Z,100343.72
2023-05-07T00:51:32.473Z,100340.34
2023-05-07T00:54:20.906Z,100336.59
2023-05-07T00:57:08.653Z,100329.66
2023-05-07T00:59:56.831Z,100329.66
2023-05-07T01:02:45.031Z,100335.91
2023-05-07T01:05:33.192Z,100324.56
2023-05-07T01:08:22.070Z,100339.66
2023-05-07T01:11:10.463Z,100330.19
2023-05-07T01:14:00.842Z,100338.38
2023-05-07T01:16:49.878Z,100329.75
2023-05-07T01:19:37.902Z,100335.41
2023-05-07T01:22:37.985Z,100338.13
2023-05-07T01:25:25.949Z,100341.88
2023-05-07T01:28:13.446Z,100339.38
2023-05-07T01:31:04.835Z,100338.13
2023-05-07T01:33:54.411Z,100347.19
2023-05-07T01:36:44.708Z,100342.75
2023-05-07T01:39:33.391Z,100351.34
2023-05-07T01:42:21.424Z,100347.31
2023-05-07T01:45:09.539Z,100349.84
2023-05-07T01:47:58.913Z,100352.38
2023-05-07T01:50:46.836Z,100348.38
2023-05-07T01:53:39.056Z,100360.31
2023-05-07T01:56:27.050Z,100362.81
2023-05-07T01:59:14.999Z,100370.34
2023-05-07T02:02:02.492Z,100369.88
2023-05-07T02:04:49.959Z,100370.88
2023-05-07T02:07:37.613Z,100375.28
2023-05-07T02:10:25.169Z,100381.13
2023-05-07T02:13:12.713Z,100381.13
2023-05-07T02:16:00.353Z,100389.28
2023-05-07T02:18:47.888Z,100393.69
2023-05-07T02:21:35.352Z,100391.16
2023-05-07T02:24:23.096Z,100404.38
2023-05-07T02:27:10.580Z,100393.69
2023-05-07T02:29:58.341Z,100409.00
2023-05-07T02:32:46.018Z,100409.56
2023-05-07T02:35:33.611Z,100403.88
2023-05-07T02:38:21.187Z,100412.91
2023-05-07T02:41:08.762Z,100405.75
2023-05-07T02:43:56.255Z,100414.75
2023-05-07T02:46:43.712Z,100418.56
2023-05-07T02:49:31.140Z,100434.69
2023-05-07T02:52:18.588Z,100432.97
2023-05-07T02:55:06.931Z,100436.34
2023-05-07T02:57:54.419Z,100439.06
2023-05-07T03:00:41.858Z,100433.34
2023-05-07T03:03:29.334Z,100432.31
2023-05-07T03:06:16.807Z,100431.41
2023-05-07T03:09:04.424Z,100439.19
2023-05-07T03:11:51.887Z,100446.28
2023-05-07T03:14:39.369Z,100445.00
2023-05-07T03:17:26.970Z,100451.09
2023-05-07T03:20:15.068Z,100453.81
2023-05-07T03:23:02.672Z,100457.78
2023-05-07T03:25:51.006Z,100457.31
2023-05-07T03:28:39.021Z,100462.56
2023-05-07T03:31:26.530Z,100461.75
2023-05-07T03:34:14.001Z,100462.94
2023-05-07T03:37:01.989Z,100467.56
2023-05-07T03:39:49.405Z,100465.47
2023-05-07T03:42:37.008Z,100464.25
2023-05-07T03:45:24.430Z,100465.09
2023-05-07T03:48:11.935Z,100473.84
2023-05-07T03:51:00.229Z,100471.72
2023-05-07T03:53:47.731Z,100475.47
2023-05-07T03:56:35.236Z,100470.66
2023-05-07T03:59:23.871Z,100472.09
2023-05-07T04:02:11.371Z,100468.06
2023-05-07T04:04:58.811Z,100468.25
2023-05-07T04:07:46.219Z,100464.53
2023-05-07T04:10:33.715Z,100466.00
2023-05-07T04:13:21.168Z,100486.28
2023-05-07T04:16:09.433Z,100475.41
2023-05-07T04:18:57.178Z,100481.69
2023-05-07T04:21:44.920Z,100481.22
2023-05-07T04:24:35.350Z,100479.34
2023-05-07T04:27:23.083Z,100481.81
2023-05-07T04:30:11.275Z,100483.25
2023-05-07T04:32:59.162Z,100484.25
2023-05-07T04:35:47.518Z,100473.19
2023-05-07T04:38:35.063Z,100482.78
2023-05-07T04:41:22.521Z,100476.22
2023-05-07T04:44:10.697Z,100484.88
2023-05-07T04:46:59.091Z,100486.53
2023-05-07T04:49:46.556Z,100485.91
2023-05-07T04:52:34.036Z,100486.28
2023-05-07T04:55:21.535Z,100481.59
2023-05-07T04:58:09.237Z,100488.28
2023-05-07T05:00:57.827Z,100490.34
2023-05-07T05:03:45.309Z,100487.97
2023-05-07T05:06:32.760Z,100489.88
2023-05-07T05:09:20.206Z,100491.94
2023-05-07T05:12:08.704Z,100499.44
2023-05-07T05:14:56.254Z,100496.44
2023-05-07T05:17:43.811Z,100503.84
2023-05-07T05:20:31.539Z,100507.50
2023-05-07T05:23:19.137Z,100512.47
2023-05-07T05:26:06.609Z,100517.34
2023-05-07T05:28:57.305Z,100519.19
2023-05-07T05:31:44.807Z,100527.94
2023-05-07T05:34:32.376Z,100529.25
2023-05-07T05:37:19.936Z,100531.84
2023-05-07T05:40:08.367Z,100530.47
2023-05-07T05:42:56.126Z,100527.09
2023-05-07T05:45:43.650Z,100540.94
2023-05-07T05:48:31.475Z,100538.78
2023-05-07T05:51:18.990Z,100543.00
2023-05-07T05:54:06.637Z,100552.63
2023-05-07T05:56:54.165Z,100548.53
2023-05-07T05:59:41.630Z,100549.81
2023-05-07T06:02:29.170Z,100551.28
2023-05-07T06:05:16.886Z,100552.91
2023-05-07T06:08:04.803Z,100559.50
2023-05-07T06:10:52.365Z,100554.97
2023-05-07T06:13:39.863Z,100563.59
2023-05-07T06:16:27.550Z,100554.44
2023-05-07T06:19:15.104Z,100561.66
2023-05-07T06:22:03.809Z,100561.72
2023-05-07T06:24:51.585Z,100579.09
2023-05-07T06:27:40.919Z,100581.19
2023-05-07T06:30:28.599Z,100584.31
2023-05-07T06:33:16.094Z,100587.00
2023-05-07T06:36:59.986Z,100589.97
2023-05-07T06:39:47.421Z,100592.59
2023-05-07T06:42:35.070Z,100594.47
2023-05-07T06:45:22.527Z,100596.69
2023-05-07T06:48:09.976Z,100594.72
2023-05-07T06:50:58.866Z,100595.84
2023-05-07T06:53:47.352Z,100605.44
2023-05-07T06:56:35.985Z,100604.47
2023-05-07T06:59:23.417Z,100609.97
2023-05-07T07:02:10.893Z,100607.88
2023-05-07T07:04:58.356Z,100613.16
2023-05-07T07:07:46.370Z,100610.19
2023-05-07T07:10:34.099Z,100613.69
2023-05-07T07:13:21.586Z,100613.69
2023-05-07T07:16:09.211Z,100612.56
2023-05-07T07:18:56.739Z,100620.81
2023-05-07T07:21:44.457Z,100628.31
2023-05-07T07:24:31.879Z,100628.31
2023-05-07T07:27:19.388Z,100624.94
2023-05-07T07:30:08.083Z,100633.25
2023-05-07T07:32:56.564Z,100633.50
2023-05-07T07:35:44.017Z,100631.72
2023-05-07T07:38:31.658Z,100628.09
2023-05-07T07:41:19.099Z,100631.94
2023-05-07T07:44:08.822Z,100620.03
2023-05-07T07:46:56.285Z,100615.84
2023-05-07T07:49:43.838Z,100619.16
2023-05-07T07:52:31.329Z,100614.09
2023-05-07T07:55:24.256Z,100621.44
2023-05-07T07:58:11.775Z,100625.25
2023-05-07T08:00:59.566Z,100623.38
2023-05-07T08:03:47.101Z,100633.25
2023-05-07T08:06:34.665Z,100640.63
2023-05-07T08:09:22.188Z,100637.47
2023-05-07T08:12:09.824Z,100647.81
2023-05-07T08:14:57.423Z,100648.22
2023-05-07T08:17:45.445Z,100658.13
2023-05-07T08:20:33.417Z,100658.97
2023-05-07T08:23:20.950Z,100665.28
2023-05-07T08:26:09.885Z,100665.69
2023-05-07T08:28:57.396Z,100661.06
2023-05-07T08:31:44.854Z,100666.53
2023-05-07T08:34:32.315Z,100661.91
2023-05-07T08:37:19.808Z,100672.63
2023-05-07T08:40:11.406Z,100673.69
2023-05-07T08:43:02.203Z,100674.94
2023-05-07T08:45:51.290Z,100670.31
2023-05-07T08:48:39.010Z,100683.78
2023-05-07T08:51:26.981Z,100672.22
2023-05-07T08:54:18.075Z,100681.06
2023-05-07T08:57:05.701Z,100678.06
2023-05-07T08:59:53.120Z,100688.84
2023-05-07T09:02:40.950Z,100686.94
2023-05-07T09:05:28.576Z,100684.84
2023-05-07T09:08:17.611Z,100682.53
2023-05-07T09:11:29.724Z,100686.31
2023-05-07T09:14:17.297Z,100680.00
2023-05-07T09:17:04.837Z,100683.56
2023-05-07T09:19:52.351Z,100697.91
2023-05-07T09:22:40.204Z,100688.84
2023-05-07T09:25:33.159Z,100692.84
2023-05-07T09:28:20.780Z,100698.28
2023-05-07T09:31:09.453Z,100698.94
2023-05-07T09:33:57.543Z,100707.78
2023-05-07T09:36:45.048Z,100709.47
2023-05-07T09:39:48.703Z,100710.25
2023-05-07T09:42:36.336Z,100713.13
2023-05-07T09:45:30.727Z,100709.66
2023-05-07T09:48:19.957Z,100716.78
2023-05-07T09:51:24.085Z,100716.75
2023-05-07T09:54:12.425Z,100717.81
2023-05-07T09:57:00.834Z,100715.81
2023-05-07T09:59:49.180Z,100717.94
2023-05-07T10:02:38.481Z,100713.84
2023-05-07T10:05:27.123Z,100713.81
2023-05-07T10:08:18.175Z,100716.50
2023-05-07T10:11:07.351Z,100713.44
2023-05-07T10:13:54.969Z,100704.81
2023-05-07T10:16:42.891Z,100719.38
2023-05-07T10:19:31.364Z,100711.00
2023-05-07T10:22:20.173Z,100707.94
2023-05-07T10:25:27.039Z,100710.53
2023-05-07T10:28:14.941Z,100708.88
2023-05-07T10:31:23.974Z,100719.00
2023-05-07T10:34:15.377Z,100713.75
2023-05-07T10:37:03.872Z,100708.78
2023-05-07T10:39:51.488Z,100709.66
2023-05-07T10:42:38.968Z,100713.91
2023-05-07T10:45:27.290Z,100711.09
2023-05-07T10:51:23.164Z,100718.81
2023-05-07T10:54:14.022Z,100732.72
2023-05-07T10:57:33.558Z,100724.00
2023-05-07T11:00:38.917Z,100729.66
2023-05-07T11:03:28.619Z,100736.97
2023-05-07T11:06:17.839Z,100738.69
2023-05-07T11:09:05.350Z,100734.56
2023-05-07T11:11:52.849Z,100736.31
2023-05-07T11:14:43.697Z,100728.19
2023-05-07T11:17:35.715Z,100727.16
2023-05-07T11:20:56.772Z,100732.09
2023-05-07T11:23:50.096Z,100739.88
2023-05-07T11:26:51.457Z,100733.78
2023-05-07T11:29:39.247Z,100732.09
2023-05-07T11:32:32.730Z,100730.03
2023-05-07T11:35:25.638Z,100729.34
2023-05-07T11:38:14.508Z,100733.94
2023-05-07T11:41:03.109Z,100731.88
2023-05-07T11:43:58.626Z,100730.94
2023-05-07T11:46:46.675Z,100737.38
2023-05-07T11:49:35.696Z,100729.00
2023-05-07T11:52:25.159Z,100734.06
2023-05-07T11:55:12.869Z,100726.56
2023-05-07T11:58:00.467Z,100724.25
2023-05-07T12:00:55.419Z,100723.00
2023-05-07T12:03:45.415Z,100727.25
2023-05-07T12:06:32.907Z,100734.06
2023-05-07T12:09:20.568Z,100734.31
2023-05-07T12:12:08.431Z,100740.41
2023-05-07T12:14:55.883Z,100741.84
2023-05-07T12:17:44.016Z,100739.56
2023-05-07T12:20:31.568Z,100735.13
2023-05-07T12:23:19.605Z,100735.75
2023-05-07T12:26:07.824Z,100742.91
2023-05-07T12:28:55.474Z,100739.31
2023-05-07T12:31:43.868Z,100745.69
2023-05-07T12:34:32.838Z,100739.59
2023-05-07T12:37:27.079Z,100745.31
2023-05-07T12:40:15.878Z,100741.72
2023-05-07T12:43:03.418Z,100747.09
2023-05-07T12:45:52.811Z,100743.66
2023-05-07T12:48:45.125Z,100747.72
2023-05-07T12:51:32.630Z,100756.19
2023-05-07T12:54:34.239Z,100749.50
2023-05-07T12:57:22.410Z,100745.63
2023-05-07T13:00:10.942Z,100746.63
2023-05-07T13:03:00.478Z,100752.63
2023-05-07T13:05:47.997Z,100752.81
2023-05-07T13:08:38.964Z,100757.75
2023-05-07T13:11:26.406Z,100752.22
2023-05-07T13:14:14.186Z,100748.38
2023-05-07T13:17:01.642Z,100757.84
2023-05-07T13:19:49.235Z,100761.19
2023-05-07T13:22:37.058Z,100752.91
2023-05-07T13:25:24.623Z,100753.63
2023-05-07T13:28:12.096Z,100758.59
2023-05-07T13:30:59.579Z,100764.09
2023-05-07T13:33:46.995Z,100765.09
2023-05-07T13:36:38.407Z,100757.53
2023-05-07T13:39:26.044Z,100750.94
2023-05-07T13:42:13.493Z,100755.00
2023-05-07T13:45:01.606Z,100754.41
2023-05-07T13:47:50.876Z,100765.22
2023-05-07T13:50:38.340Z,100757.53
2023-05-07T13:53:25.984Z,100758.72
2023-05-07T13:56:13.392Z,100759.22
2023-05-07T13:59:01.255Z,100763.41
2023-05-07T14:01:49.342Z,100762.91
2023-05-07T14:04:36.812Z,100758.28
2023-05-07T14:07:24.261Z,100758.38
2023-05-07T14:10:12.749Z,100763.91
2023-05-07T14:13:00.496Z,100755.34
2023-05-07T14:15:49.849Z,100758.13
2023-05-07T14:18:38.368Z,100754.50
2023-05-07T14:21:25.876Z,100753.91
2023-05-07T14:24:13.530Z,100752.59
2023-05-07T14:27:01.194Z,100748.19
2023-05-07T14:29:52.217Z,100752.47
2023-05-07T14:32:39.654Z,100760.88
2023-05-07T14:35:27.142Z,100763.13
2023-05-07T14:38:14.592Z,100761.94
2023-05-07T14:41:02.110Z,100767.09
2023-05-07T14:43:51.307Z,100764.59
2023-05-07T14:46:38.758Z,100762.56
2023-05-07T14:49:26.228Z,100767.09
2023-05-07T14:52:13.686Z,100773.22
2023-05-07T14:55:01.614Z,100762.78
2023-05-07T14:57:49.088Z,100773.84
2023-05-07T15:00:36.589Z,100766.97
2023-05-07T15:03:24.545Z,100778.63
2023-05-07T15:06:12.121Z,100763.19
2023-05-07T15:08:59.634Z,100770.38
2023-05-07T15:11:47.110Z,100766.03
2023-05-07T15:14:34.702Z,100763.16
2023-05-07T15:17:22.402Z,100772.50
2023-05-07T15:20:10.488Z,100773.69
2023-05-07T15:22:58.161Z,100778.22
2023-05-07T15:25:46.841Z,100771.53
2023-05-07T15:28:35.992Z,100777.75
2023-05-07T15:31:23.694Z,100776.88
2023-05-07T15:34:11.389Z,100775.97
2023-05-07T15:36:58.818Z,100769.75
2023-05-07T15:39:46.286Z,100765.44
2023-05-07T15:42:34.852Z,100769.38
2023-05-07T15:45:22.503Z,100765.19
2023-05-07T15:48:11.752Z,100763.91
2023-05-07T15:51:00.349Z,100761.47
2023-05-07T15:53:47.973Z,100766.63
2023-05-07T15:56:35.523Z,100764.25
2023-05-07T15:59:23.065Z,100755.16
2023-05-07T16:02:10.720Z,100760.75
2023-05-07T16:04:58.187Z,100761.84
2023-05-07T16:07:45.620Z,100761.16
2023-05-07T16:10:33.099Z,100764.59
2023-05-07T16:13:21.394Z,100771.03
2023-05-07T16:16:09.011Z,100772.75
2023-05-07T16:18:57.275Z,100773.38
2023-05-07T16:21:44.870Z,100768.31
2023-05-07T16:24:33.014Z,100762.22
2023-05-07T16:27:20.409Z,100763.91
2023-05-07T16:30:08.949Z,100762.78
2023-05-07T16:32:56.625Z,100769.50
2023-05-07T16:35:47.946Z,100767.94
2023-05-07T16:38:35.425Z,100764.84
2023-05-07T16:41:23.401Z,100765.72
2023-05-07T16:44:11.133Z,100759.34
2023-05-07T16:46:58.594Z,100762.34
2023-05-07T16:49:46.090Z,100764.09
2023-05-07T16:52:33.626Z,100774.56
2023-05-07T16:55:21.227Z,100764.34
2023-05-07T16:58:11.556Z,100769.97
2023-05-07T17:00:59.105Z,100770.25
2023-05-07T17:03:46.749Z,100765.06
2023-05-07T17:06:34.296Z,100770.81
2023-05-07T17:09:21.739Z,100769.63
2023-05-07T17:12:09.237Z,100781.88
2023-05-07T17:14:56.773Z,100777.31
2023-05-07T17:17:44.420Z,100766.06
2023-05-07T17:20:31.953Z,100772.66
2023-05-07T17:23:19.432Z,100771.56
2023-05-07T17:26:15.711Z,100774.06
2023-05-07T17:29:04.077Z,100775.25
2023-05-07T17:31:51.995Z,100776.75
2023-05-07T17:34:39.403Z,100780.31
2023-05-07T17:37:27.488Z,100779.25
2023-05-07T17:40:15.714Z,100771.06
2023-05-07T17:43:03.259Z,100769.19
2023-05-07T17:45:51.350Z,100772.63
2023-05-07T17:48:38.904Z,100767.69
2023-05-07T17:51:26.608Z,100770.28
2023-05-07T17:54:14.073Z,100775.06
2023-05-07T17:57:01.659Z,100781.03
2023-05-07T17:59:49.388Z,100777.44
2023-05-07T18:02:37.209Z,100782.56
2023-05-07T18:05:31.461Z,100774.88
2023-05-07T18:08:18.930Z,100790.28
2023-05-07T18:11:06.670Z,100785.13
2023-05-07T18:13:54.137Z,100790.69
2023-05-07T18:16:41.838Z,100785.41
2023-05-07T18:19:29.391Z,100792.94
2023-05-07T18:22:16.966Z,100787.84
2023-05-07T18:25:05.261Z,100783.94
2023-05-07T18:27:52.742Z,100788.00
2023-05-07T18:30:40.392Z,100787.63
2023-05-07T18:33:27.855Z,100785.56
2023-05-07T18:36:15.286Z,100787.94
2023-05-07T18:39:03.889Z,100793.88
2023-05-07T18:41:51.342Z,100795.84
2023-05-07T18:44:39.184Z,100800.81
2023-05-07T18:47:26.621Z,100801.47
2023-05-07T18:50:14.631Z,100804.94
2023-05-07T18:53:02.501Z,100806.19
2023-05-07T18:55:53.885Z,100807.56
2023-05-07T18:58:41.289Z,100810.38
2023-05-07T19:01:28.823Z,100812.31
2023-05-07T19:04:17.784Z,100815.78
2023-05-07T19:07:05.336Z,100818.09
2023-05-07T19:10:04.118Z,100815.25
2023-05-07T19:12:55.854Z,100821.41
2023-05-07T19:15:43.501Z,100819.78
2023-05-07T19:18:32.228Z,100810.34
2023-05-07T19:21:19.734Z,100817.56
2023-05-07T19:24:07.973Z,100820.38
2023-05-07T19:26:55.390Z,100829.25
2023-05-07T19:29:43.990Z,100829.72
2023-05-07T19:32:31.633Z,100827.63
2023-05-07T19:35:19.442Z,100830.22
2023-05-07T19:38:07.746Z,100841.00
2023-05-07T19:40:56.180Z,100845.00
2023-05-07T19:43:43.625Z,100846.91
2023-05-07T19:46:31.151Z,100838.31
2023-05-07T19:49:18.834Z,100845.91
2023-05-07T19:52:06.413Z,100858.56
2023-05-07T19:54:54.229Z,100859.63
2023-05-07T19:57:41.701Z,100857.75
2023-05-07T20:00:32.563Z,100861.34
2023-05-07T20:03:20.112Z,100866.78
2023-05-07T20:06:07.602Z,100873.56
2023-05-07T20:08:55.092Z,100867.66
2023-05-07T20:11:42.573Z,100876.69
2023-05-07T20:14:30.109Z,100882.19
2023-05-07T20:17:17.657Z,100893.94
2023-05-07T20:20:05.908Z,100891.41
2023-05-07T20:22:53.311Z,100890.97
2023-05-07T20:25:42.376Z,100897.06
2023-05-07T20:28:30.289Z,100896.84
2023-05-07T20:31:18.584Z,100892.84
2023-05-07T20:34:06.069Z,100893.44
2023-05-07T20:36:53.871Z,100909.88
2023-05-07T20:39:42.235Z,100901.41
2023-05-07T20:42:30.093Z,100905.63
2023-05-07T20:45:17.675Z,100910.03
2023-05-07T20:48:05.416Z,100902.84
2023-05-07T20:50:52.888Z,100913.53
2023-05-07T20:53:41.153Z,100910.13
2023-05-07T20:56:28.545Z,100906.31
2023-05-07T20:59:16.658Z,100910.50
2023-05-07T21:02:04.215Z,100908.97
2023-05-07T21:04:52.764Z,100916.72
2023-05-07T21:07:40.219Z,100919.59
2023-05-07T21:10:27.828Z,100922.06
2023-05-07T21:13:16.154Z,100926.63
2023-05-07T21:16:04.056Z,100927.63
2023-05-07T21:18:51.523Z,100923.16
2023-05-07T21:21:39.185Z,100932.16
2023-05-07T21:24:26.830Z,100932.72
2023-05-07T21:27:14.512Z,100930.16
2023-05-07T21:30:05.109Z,100928.41
2023-05-07T21:32:53.382Z,100926.44
2023-05-07T21:35:41.022Z,100926.19
2023-05-07T21:38:28.528Z,100925.94
2023-05-07T21:41:16.000Z,100922.75
2023-05-07T21:44:05.015Z,100922.69
2023-05-07T21:46:52.451Z,100926.00
2023-05-07T21:49:41.833Z,100924.88
2023-05-07T21:52:29.355Z,100922.56
2023-05-07T21:55:19.133Z,100924.56
2023-05-07T21:58:06.576Z,100916.28
2023-05-07T22:00:54.315Z,100923.19
2023-05-07T22:03:41.926Z,100912.84
2023-05-07T22:06:29.449Z,100915.88
2023-05-07T22:09:17.350Z,100914.53
2023-05-07T22:12:05.345Z,100912.41
2023-05-07T22:14:52.775Z,100912.50
2023-05-07T22:17:40.346Z,100911.00
2023-05-07T22:20:28.044Z,100912.22
2023-05-07T22:23:15.854Z,100914.22
2023-05-07T22:26:11.875Z,100916.56
2023-05-07T22:28:59.214Z,100924.09
2023-05-07T22:31:46.632Z,100923.63
2023-05-07T22:34:34.142Z,100919.97
2023-05-07T22:37:21.545Z,100918.00
2023-05-07T22:40:10.033Z,100923.63
2023-05-07T22:42:57.673Z,100923.16
2023-05-07T22:45:45.196Z,100928.53
2023-05-07T22:48:35.688Z,100917.81
2023-05-07T22:51:23.206Z,100916.50
2023-05-07T22:54:11.510Z,100923.63
2023-05-07T22:57:00.194Z,100917.16
2023-05-07T22:59:47.617Z,100921.53
2023-05-07T23:02:35.117Z,100928.34
2023-05-07T23:05:23.167Z,100924.56
2023-05-07T23:08:10.789Z,100924.84
2023-05-07T23:10:58.229Z,100917.53
2023-05-07T23:13:45.718Z,100915.94
2023-05-07T23:16:33.372Z,100908.81
2023-05-07T23:19:20.923Z,100916.75
2023-05-07T23:22:08.461Z,100913.84
2023-05-07T23:24:56.079Z,100906.72
2023-05-07T23:27:43.539Z,100909.25
2023-05-07T23:30:30.983Z,100903.13
2023-05-07T23:33:18.378Z,100895.72
2023-05-07T23:36:07.819Z,100885.94
2023-05-07T23:38:55.552Z,100881.91
2023-05-07T23:41:43.189Z,100886.88
2023-05-07T23:44:30.580Z,100884.25
2023-05-07T23:47:18.170Z,100885.69
2023-05-07T23:50:06.451Z,100885.56
2023-05-07T23:52:53.909Z,100883.78
2023-05-07T23:55:41.304Z,100884.34
2023-05-07T23:58:28.742Z,100885.22
